createdAt,value
2018-09-30T00:00:48.614Z,100651
2018-09-30T00:01:53.508Z,100654
2018-09-30T00:02:58.662Z,100659
2018-09-30T00:04:04.342Z,100656
2018-09-30T00:05:09.773Z,100642
2018-09-30T00:06:15.023Z,100648
2018-09-30T00:07:20.351Z,100642
2018-09-30T00:08:25.525Z,100648
2018-09-30T00:09:31.385Z,100645
2018-09-30T00:10:36.525Z,100640
2018-09-30T00:11:41.398Z,100642
2018-09-30T00:12:46.516Z,100637
2018-09-30T00:13:51.669Z,100640
2018-09-30T00:14:56.811Z,100640
2018-09-30T00:16:02.304Z,100651
2018-09-30T00:17:06.617Z,100645
2018-09-30T00:18:11.769Z,100640
2018-09-30T00:19:17.336Z,100640
2018-09-30T00:20:22.512Z,100637
2018-09-30T00:21:27.908Z,100637
2018-09-30T00:22:32.832Z,100634
2018-09-30T00:23:37.982Z,100634
2018-09-30T00:24:43.680Z,100628
2018-09-30T00:25:48.895Z,100631
2018-09-30T00:26:54.321Z,100631
2018-09-30T00:27:59.714Z,100628
2018-09-30T00:29:04.869Z,100622
2018-09-30T00:30:10.307Z,100628
2018-09-30T00:31:16.087Z,100616
2018-09-30T00:32:21.573Z,100616
2018-09-30T00:33:27.568Z,100622
2018-09-30T00:34:32.195Z,100619
2018-09-30T00:35:37.081Z,100616
2018-09-30T00:36:42.469Z,100619
2018-09-30T00:37:47.641Z,100625
2018-09-30T00:38:52.835Z,100625
2018-09-30T00:39:58.613Z,100619
2018-09-30T00:41:02.993Z,100613
2018-09-30T00:42:07.912Z,100611
2018-09-30T00:43:13.630Z,100611
2018-09-30T00:44:18.488Z,100616
2018-09-30T00:45:23.729Z,100605
2018-09-30T00:46:29.851Z,100611
2018-09-30T00:47:34.989Z,100605
2018-09-30T00:48:40.422Z,100608
2018-09-30T00:49:45.608Z,100608
2018-09-30T00:50:51.055Z,100602
2018-09-30T00:51:56.367Z,100611
2018-09-30T00:53:01.857Z,100599
2018-09-30T00:54:07.065Z,100596
2018-09-30T00:55:12.573Z,100599
2018-09-30T00:56:17.729Z,100602
2018-09-30T00:57:22.965Z,100599
2018-09-30T00:58:28.793Z,100590
2018-09-30T00:59:34.231Z,100590
2018-09-30T01:00:39.647Z,100605
2018-09-30T01:01:44.853Z,100593
2018-09-30T01:02:50.296Z,100596
2018-09-30T01:03:55.694Z,100587
2018-09-30T01:05:01.188Z,100593
2018-09-30T01:06:05.806Z,100582
2018-09-30T01:07:11.242Z,100587
2018-09-30T01:08:16.465Z,100587
2018-09-30T01:09:21.711Z,100574
2018-09-30T01:10:41.651Z,100577
2018-09-30T01:11:46.823Z,100577
2018-09-30T01:12:51.709Z,100565
2018-09-30T01:13:56.581Z,100568
2018-09-30T01:15:01.206Z,100577
2018-09-30T01:16:06.477Z,100568
2018-09-30T01:17:11.645Z,100565
2018-09-30T01:18:16.248Z,100568
2018-09-30T01:19:21.796Z,100556
2018-09-30T01:20:26.658Z,100553
2018-09-30T01:21:32.338Z,100562
2018-09-30T01:22:37.769Z,100562
2018-09-30T01:23:42.705Z,100559
2018-09-30T01:24:47.806Z,100568
2018-09-30T01:25:53.231Z,100562
2018-09-30T01:26:58.739Z,100553
2018-09-30T01:28:03.314Z,100559
2018-09-30T01:29:08.220Z,100562
2018-09-30T01:30:13.419Z,100562
2018-09-30T01:31:18.631Z,100553
2018-09-30T01:32:23.576Z,100553
2018-09-30T01:33:29.514Z,100551
2018-09-30T01:34:34.727Z,100551
2018-09-30T01:35:39.900Z,100548
2018-09-30T01:36:45.574Z,100551
2018-09-30T01:37:50.767Z,100545
2018-09-30T01:38:56.049Z,100545
2018-09-30T01:40:01.825Z,100545
2018-09-30T01:41:06.690Z,100542
2018-09-30T01:42:11.887Z,100539
2018-09-30T01:43:17.429Z,100545
2018-09-30T01:44:22.869Z,100533
2018-09-30T01:45:28.535Z,100545
2018-09-30T01:46:33.427Z,100536
2018-09-30T01:47:38.601Z,100542
2018-09-30T01:48:43.873Z,100542
2018-09-30T01:49:48.771Z,100542
2018-09-30T01:50:53.937Z,100539
2018-09-30T01:51:59.212Z,100542
2018-09-30T01:53:04.136Z,100539
2018-09-30T01:54:09.574Z,100533
2018-09-30T01:55:14.488Z,100524
2018-09-30T01:56:19.922Z,100521
2018-09-30T01:57:40.416Z,100527
2018-09-30T01:58:45.558Z,100536
2018-09-30T01:59:50.989Z,100510
2018-09-30T02:00:56.415Z,100521
2018-09-30T02:02:01.560Z,100519
2018-09-30T02:03:06.148Z,100516
2018-09-30T02:04:11.622Z,100516
2018-09-30T02:05:17.060Z,100510
2018-09-30T02:06:22.558Z,100519
2018-09-30T02:07:27.821Z,100516
2018-09-30T02:08:32.985Z,100504
2018-09-30T02:09:38.377Z,100498
2018-09-30T02:10:43.509Z,100507
2018-09-30T02:11:48.386Z,100504
2018-09-30T02:12:54.264Z,100510
2018-09-30T02:13:59.709Z,100498
2018-09-30T02:15:04.908Z,100510
2018-09-30T02:16:10.030Z,100498
2018-09-30T02:17:15.259Z,100507
2018-09-30T02:18:20.440Z,100495
2018-09-30T02:19:25.680Z,100492
2018-09-30T02:20:31.144Z,100495
2018-09-30T02:21:36.448Z,100492
2018-09-30T02:22:41.598Z,100492
2018-09-30T02:23:46.470Z,100492
2018-09-30T02:24:52.196Z,100487
2018-09-30T02:25:57.382Z,100487
2018-09-30T02:27:02.400Z,100489
2018-09-30T02:28:07.670Z,100492
2018-09-30T02:29:13.116Z,100487
2018-09-30T02:30:18.096Z,100489
2018-09-30T02:31:23.232Z,100492
2018-09-30T02:32:28.098Z,100487
2018-09-30T02:33:33.605Z,100478
2018-09-30T02:34:37.902Z,100476
2018-09-30T02:35:43.093Z,100470
2018-09-30T02:36:48.649Z,100476
2018-09-30T02:37:53.412Z,100476
2018-09-30T02:38:58.381Z,100470
2018-09-30T02:40:03.925Z,100470
2018-09-30T02:41:09.407Z,100470
2018-09-30T02:42:14.334Z,100467
2018-09-30T02:43:19.927Z,100464
2018-09-30T02:44:25.127Z,100476
2018-09-30T02:45:30.873Z,100461
2018-09-30T02:46:35.738Z,100478
2018-09-30T02:47:41.240Z,100470
2018-09-30T02:48:46.100Z,100470
2018-09-30T02:49:51.354Z,100464
2018-09-30T02:50:56.804Z,100453
2018-09-30T02:52:02.390Z,100450
2018-09-30T02:53:07.384Z,100456
2018-09-30T02:54:12.845Z,100456
2018-09-30T02:55:17.975Z,100453
2018-09-30T02:56:22.841Z,100450
2018-09-30T02:57:27.915Z,100450
2018-09-30T02:58:33.081Z,100459
2018-09-30T02:59:37.957Z,100456
2018-09-30T03:00:43.480Z,100456
2018-09-30T03:01:48.625Z,100447
2018-09-30T03:02:54.056Z,100447
2018-09-30T03:03:59.622Z,100444
2018-09-30T03:05:04.487Z,100447
2018-09-30T03:06:09.363Z,100447
2018-09-30T03:07:15.230Z,100447
2018-09-30T03:08:20.682Z,100432
2018-09-30T03:09:41.052Z,100432
2018-09-30T03:10:45.633Z,100444
2018-09-30T03:11:50.773Z,100432
2018-09-30T03:12:56.380Z,100438
2018-09-30T03:14:01.836Z,100441
2018-09-30T03:15:06.456Z,100432
2018-09-30T03:16:12.349Z,100438
2018-09-30T03:17:17.215Z,100435
2018-09-30T03:18:22.445Z,100421
2018-09-30T03:19:28.085Z,100432
2018-09-30T03:20:33.237Z,100424
2018-09-30T03:21:38.785Z,100409
2018-09-30T03:22:44.280Z,100427
2018-09-30T03:23:49.778Z,100421
2018-09-30T03:24:55.623Z,100421
2018-09-30T03:25:59.952Z,100409
2018-09-30T03:27:04.836Z,100415
2018-09-30T03:28:09.681Z,100403
2018-09-30T03:29:14.555Z,100403
2018-09-30T03:30:19.705Z,100415
2018-09-30T03:31:25.530Z,100403
2018-09-30T03:32:31.003Z,100395
2018-09-30T03:33:36.554Z,100398
2018-09-30T03:34:41.749Z,100403
2018-09-30T03:35:46.923Z,100395
2018-09-30T03:36:52.240Z,100383
2018-09-30T03:37:57.103Z,100395
2018-09-30T03:39:02.009Z,100406
2018-09-30T03:40:07.115Z,100403
2018-09-30T03:41:12.548Z,100398
2018-09-30T03:42:17.985Z,100403
2018-09-30T03:43:23.179Z,100377
2018-09-30T03:44:28.053Z,100392
2018-09-30T03:45:33.771Z,100392
2018-09-30T03:46:38.432Z,100386
2018-09-30T03:47:43.568Z,100383
2018-09-30T03:48:48.681Z,100383
2018-09-30T03:49:54.044Z,100380
2018-09-30T03:50:58.946Z,100374
2018-09-30T03:52:04.058Z,100389
2018-09-30T03:53:08.712Z,100380
2018-09-30T03:54:13.896Z,100386
2018-09-30T03:55:19.447Z,100386
2018-09-30T03:56:24.503Z,100392
2018-09-30T03:57:30.255Z,100392
2018-09-30T03:58:35.683Z,100380
2018-09-30T03:59:40.015Z,100380
2018-09-30T04:00:45.863Z,100386
2018-09-30T04:01:51.320Z,100383
2018-09-30T04:02:56.799Z,100383
2018-09-30T04:04:02.104Z,100395
2018-09-30T04:05:07.256Z,100383
2018-09-30T04:06:12.528Z,100386
2018-09-30T04:07:18.305Z,100380
2018-09-30T04:08:23.192Z,100392
2018-09-30T04:09:29.268Z,100392
2018-09-30T04:10:34.231Z,100386
2018-09-30T04:11:39.667Z,100386
2018-09-30T04:12:44.974Z,100380
2018-09-30T04:13:50.452Z,100389
2018-09-30T04:14:55.315Z,100383
2018-09-30T04:16:00.925Z,100380
2018-09-30T04:17:05.829Z,100383
2018-09-30T04:18:12.102Z,100386
2018-09-30T04:19:17.869Z,100389
2018-09-30T04:20:22.455Z,100386
2018-09-30T04:21:28.396Z,100389
2018-09-30T04:22:33.916Z,100380
2018-09-30T04:23:39.145Z,100383
2018-09-30T04:24:44.282Z,100386
2018-09-30T04:25:49.434Z,100389
2018-09-30T04:26:54.606Z,100380
2018-09-30T04:28:00.536Z,100386
2018-09-30T04:29:05.521Z,100389
2018-09-30T04:30:10.771Z,100383
2018-09-30T04:31:16.051Z,100383
2018-09-30T04:32:21.242Z,100377
2018-09-30T04:33:27.230Z,100380
2018-09-30T04:34:32.689Z,100371
2018-09-30T04:35:37.853Z,100380
2018-09-30T04:36:43.558Z,100383
2018-09-30T04:37:48.756Z,100386
2018-09-30T04:38:54.299Z,100380
2018-09-30T04:39:59.392Z,100386
2018-09-30T04:41:04.835Z,100392
2018-09-30T04:42:10.057Z,100383
2018-09-30T04:43:14.955Z,100374
2018-09-30T04:44:19.903Z,100380
2018-09-30T04:45:40.109Z,100380
2018-09-30T04:46:45.337Z,100368
2018-09-30T04:47:50.563Z,100374
2018-09-30T04:48:56.003Z,100371
2018-09-30T04:50:01.424Z,100368
2018-09-30T04:51:06.643Z,100377
2018-09-30T04:52:12.046Z,100380
2018-09-30T04:53:17.571Z,100368
2018-09-30T04:54:22.998Z,100368
2018-09-30T04:55:28.891Z,100371
2018-09-30T04:56:34.045Z,100363
2018-09-30T04:57:39.379Z,100368
2018-09-30T04:58:44.529Z,100351
2018-09-30T04:59:49.993Z,100354
2018-09-30T05:00:55.867Z,100357
2018-09-30T05:02:01.289Z,100368
2018-09-30T05:03:05.882Z,100348
2018-09-30T05:04:11.699Z,100348
2018-09-30T05:05:17.129Z,100357
2018-09-30T05:06:21.795Z,100345
2018-09-30T05:07:41.840Z,100363
2018-09-30T05:08:46.983Z,100363
2018-09-30T05:09:52.446Z,100368
2018-09-30T05:10:57.311Z,100360
2018-09-30T05:12:01.984Z,100363
2018-09-30T05:13:07.141Z,100368
2018-09-30T05:14:12.294Z,100366
2018-09-30T05:15:17.168Z,100366
2018-09-30T05:16:22.879Z,100363
2018-09-30T05:17:28.299Z,100357
2018-09-30T05:18:33.850Z,100368
2018-09-30T05:19:39.090Z,100366
2018-09-30T05:20:44.522Z,100371
2018-09-30T05:21:50.363Z,100377
2018-09-30T05:22:55.515Z,100363
2018-09-30T05:24:00.741Z,100368
2018-09-30T05:25:05.398Z,100371
2018-09-30T05:26:10.270Z,100368
2018-09-30T05:27:15.466Z,100363
2018-09-30T05:28:20.304Z,100354
2018-09-30T05:29:25.506Z,100368
2018-09-30T05:30:31.085Z,100374
2018-09-30T05:31:36.537Z,100377
2018-09-30T05:32:41.963Z,100363
2018-09-30T05:33:47.508Z,100374
2018-09-30T05:34:52.938Z,100374
2018-09-30T05:35:58.458Z,100374
2018-09-30T05:37:03.586Z,100366
2018-09-30T05:38:08.888Z,100366
2018-09-30T05:39:14.193Z,100374
2018-09-30T05:40:19.928Z,100368
2018-09-30T05:41:25.377Z,100363
2018-09-30T05:42:31.286Z,100366
2018-09-30T05:43:36.714Z,100363
2018-09-30T05:44:41.790Z,100368
2018-09-30T05:45:47.256Z,100368
2018-09-30T05:46:52.220Z,100363
2018-09-30T05:47:57.474Z,100366
2018-09-30T05:49:02.636Z,100368
2018-09-30T05:50:07.205Z,100371
2018-09-30T05:51:12.366Z,100368
2018-09-30T05:52:17.770Z,100368
2018-09-30T05:53:22.714Z,100371
2018-09-30T05:54:28.363Z,100366
2018-09-30T05:55:33.612Z,100371
2018-09-30T05:56:38.768Z,100366
2018-09-30T05:57:45.091Z,100366
2018-09-30T05:58:50.593Z,100351
2018-09-30T05:59:56.021Z,100366
2018-09-30T06:01:01.886Z,100357
2018-09-30T06:02:06.193Z,100360
2018-09-30T06:03:11.718Z,100363
2018-09-30T06:04:17.545Z,100368
2018-09-30T06:05:22.737Z,100366
2018-09-30T06:06:28.470Z,100374
2018-09-30T06:07:33.651Z,100368
2018-09-30T06:08:38.822Z,100374
2018-09-30T06:09:44.283Z,100374
2018-09-30T06:10:49.712Z,100371
2018-09-30T06:11:54.591Z,100371
2018-09-30T06:12:59.880Z,100368
2018-09-30T06:14:05.282Z,100366
2018-09-30T06:15:10.525Z,100363
2018-09-30T06:16:15.985Z,100368
2018-09-30T06:17:21.141Z,100368
2018-09-30T06:18:26.186Z,100380
2018-09-30T06:19:31.371Z,100368
2018-09-30T06:20:36.804Z,100377
2018-09-30T06:21:42.233Z,100380
2018-09-30T06:22:47.398Z,100374
2018-09-30T06:23:52.562Z,100371
2018-09-30T06:24:58.372Z,100374
2018-09-30T06:26:03.563Z,100374
2018-09-30T06:27:08.721Z,100386
2018-09-30T06:28:14.492Z,100374
2018-09-30T06:29:19.682Z,100371
2018-09-30T06:30:25.125Z,100371
2018-09-30T06:31:45.372Z,100389
2018-09-30T06:32:51.018Z,100374
2018-09-30T06:33:56.441Z,100374
2018-09-30T06:35:01.361Z,100383
2018-09-30T06:36:06.510Z,100383
2018-09-30T06:37:12.586Z,100371
2018-09-30T06:38:18.005Z,100374
2018-09-30T06:39:22.606Z,100380
2018-09-30T06:40:28.608Z,100377
2018-09-30T06:41:33.636Z,100383
2018-09-30T06:42:39.325Z,100374
2018-09-30T06:43:44.649Z,100371
2018-09-30T06:44:49.348Z,100383
2018-09-30T06:45:55.116Z,100380
2018-09-30T06:46:59.746Z,100386
2018-09-30T06:48:04.660Z,100374
2018-09-30T06:49:09.933Z,100386
2018-09-30T06:50:15.395Z,100380
2018-09-30T06:51:20.555Z,100380
2018-09-30T06:52:26.004Z,100380
2018-09-30T06:53:30.582Z,100377
2018-09-30T06:54:35.915Z,100383
2018-09-30T06:55:41.342Z,100383
2018-09-30T06:56:46.298Z,100374
2018-09-30T06:57:52.208Z,100383
2018-09-30T06:58:57.365Z,100383
2018-09-30T07:00:02.597Z,100386
2018-09-30T07:01:08.290Z,100386
2018-09-30T07:02:13.740Z,100380
2018-09-30T07:03:18.975Z,100383
2018-09-30T07:04:24.532Z,100392
2018-09-30T07:05:29.399Z,100383
2018-09-30T07:06:35.115Z,100386
2018-09-30T07:07:40.277Z,100386
2018-09-30T07:08:45.160Z,100371
2018-09-30T07:09:50.437Z,100386
2018-09-30T07:10:55.592Z,100371
2018-09-30T07:12:01.726Z,100371
2018-09-30T07:13:07.150Z,100386
2018-09-30T07:14:12.616Z,100368
2018-09-30T07:15:17.804Z,100369
2018-09-30T07:16:23.242Z,100371
2018-09-30T07:17:28.149Z,100371
2018-09-30T07:18:33.858Z,100380
2018-09-30T07:19:38.733Z,100374
2018-09-30T07:20:44.212Z,100363
2018-09-30T07:21:50.201Z,100369
2018-09-30T07:22:55.710Z,100369
2018-09-30T07:24:00.588Z,100354
2018-09-30T07:25:06.051Z,100366
2018-09-30T07:26:10.985Z,100360
2018-09-30T07:27:15.850Z,100351
2018-09-30T07:28:21.352Z,100360
2018-09-30T07:29:26.794Z,100348
2018-09-30T07:30:32.672Z,100348
2018-09-30T07:31:38.154Z,100345
2018-09-30T07:32:43.301Z,100345
2018-09-30T07:33:48.939Z,100357
2018-09-30T07:34:54.412Z,100342
2018-09-30T07:35:59.562Z,100348
2018-09-30T07:37:05.783Z,100342
2018-09-30T07:38:10.946Z,100326
2018-09-30T07:39:16.153Z,100337
2018-09-30T07:40:21.891Z,100337
2018-09-30T07:41:27.314Z,100337
2018-09-30T07:42:32.490Z,100342
2018-09-30T07:43:37.934Z,100342
2018-09-30T07:44:43.083Z,100345
2018-09-30T07:45:48.800Z,100345
2018-09-30T07:46:54.523Z,100342
2018-09-30T07:47:59.788Z,100335
2018-09-30T07:49:05.681Z,100348
2018-09-30T07:50:11.168Z,100342
2018-09-30T07:51:16.316Z,100342
2018-09-30T07:52:21.805Z,100348
2018-09-30T07:53:27.393Z,100348
2018-09-30T07:54:33.244Z,100332
2018-09-30T07:55:38.398Z,100340
2018-09-30T07:56:43.634Z,100332
2018-09-30T07:57:49.416Z,100332
2018-09-30T07:58:54.628Z,100342
2018-09-30T07:59:59.523Z,100340
2018-09-30T08:01:04.911Z,100335
2018-09-30T08:02:10.052Z,100337
2018-09-30T08:03:15.198Z,100337
2018-09-30T08:04:20.771Z,100326
2018-09-30T08:05:25.768Z,100340
2018-09-30T08:06:32.106Z,100337
2018-09-30T08:07:37.527Z,100337
2018-09-30T08:08:42.744Z,100323
2018-09-30T08:09:48.584Z,100332
2018-09-30T08:10:53.725Z,100326
2018-09-30T08:11:58.616Z,100335
2018-09-30T08:13:02.922Z,100326
2018-09-30T08:14:07.910Z,100323
2018-09-30T08:15:12.881Z,100326
2018-09-30T08:16:18.305Z,100332
2018-09-30T08:17:23.008Z,100317
2018-09-30T08:18:29.088Z,100314
2018-09-30T08:19:34.636Z,100320
2018-09-30T08:20:39.526Z,100317
2018-09-30T08:21:45.379Z,100306
2018-09-30T08:22:50.246Z,100309
2018-09-30T08:23:55.572Z,100314
2018-09-30T08:25:01.465Z,100311
2018-09-30T08:26:05.789Z,100309
2018-09-30T08:27:10.937Z,100317
2018-09-30T08:28:16.410Z,100317
2018-09-30T08:29:20.988Z,100320
2018-09-30T08:30:41.227Z,100326
2018-09-30T08:31:46.581Z,100314
2018-09-30T08:32:51.498Z,100317
2018-09-30T08:33:57.064Z,100317
2018-09-30T08:35:02.215Z,100326
2018-09-30T08:36:07.452Z,100317
2018-09-30T08:37:12.930Z,100309
2018-09-30T08:38:18.083Z,100317
2018-09-30T08:39:22.983Z,100317
2018-09-30T08:40:28.285Z,100311
2018-09-30T08:41:33.806Z,100314
2018-09-30T08:42:39.483Z,100314
2018-09-30T08:43:45.068Z,100311
2018-09-30T08:44:50.806Z,100309
2018-09-30T08:45:56.199Z,100314
2018-09-30T08:47:01.124Z,100309
2018-09-30T08:48:06.021Z,100311
2018-09-30T08:49:11.658Z,100311
2018-09-30T08:50:17.075Z,100297
2018-09-30T08:51:22.227Z,100309
2018-09-30T08:52:27.828Z,100303
2018-09-30T08:53:32.691Z,100309
2018-09-30T08:54:38.354Z,100309
2018-09-30T08:55:43.583Z,100297
2018-09-30T08:56:48.978Z,100303
2018-09-30T08:57:54.119Z,100306
2018-09-30T08:58:58.713Z,100297
2018-09-30T09:00:03.015Z,100297
2018-09-30T09:01:07.899Z,100297
2018-09-30T09:02:13.334Z,100300
2018-09-30T09:03:18.538Z,100300
2018-09-30T09:04:23.929Z,100309
2018-09-30T09:05:28.507Z,100288
2018-09-30T09:06:34.381Z,100306
2018-09-30T09:07:39.874Z,100300
2018-09-30T09:08:45.043Z,100306
2018-09-30T09:09:50.352Z,100300
2018-09-30T09:10:55.784Z,100294
2018-09-30T09:12:01.259Z,100297
2018-09-30T09:13:06.489Z,100294
2018-09-30T09:14:11.945Z,100294
2018-09-30T09:15:17.438Z,100283
2018-09-30T09:16:22.920Z,100294
2018-09-30T09:17:28.393Z,100281
2018-09-30T09:18:34.211Z,100281
2018-09-30T09:19:39.102Z,100281
2018-09-30T09:20:44.403Z,100272
2018-09-30T09:21:50.085Z,100278
2018-09-30T09:22:55.897Z,100281
2018-09-30T09:24:00.794Z,100278
2018-09-30T09:25:06.375Z,100284
2018-09-30T09:26:11.541Z,100286
2018-09-30T09:27:16.754Z,100275
2018-09-30T09:28:22.339Z,100272
2018-09-30T09:29:27.765Z,100272
2018-09-30T09:30:32.792Z,100278
2018-09-30T09:31:38.035Z,100278
2018-09-30T09:32:43.828Z,100281
2018-09-30T09:33:49.657Z,100269
2018-09-30T09:34:54.316Z,100269
2018-09-30T09:35:59.021Z,100272
2018-09-30T09:37:04.440Z,100263
2018-09-30T09:38:09.604Z,100260
2018-09-30T09:39:14.753Z,100263
2018-09-30T09:40:20.340Z,100260
2018-09-30T09:41:25.846Z,100260
2018-09-30T09:42:31.616Z,100254
2018-09-30T09:43:36.765Z,100260
2018-09-30T09:44:41.938Z,100257
2018-09-30T09:45:47.934Z,100254
2018-09-30T09:46:53.191Z,100252
2018-09-30T09:47:58.757Z,100254
2018-09-30T09:49:04.152Z,100257
2018-09-30T09:50:09.310Z,100254
2018-09-30T09:51:14.739Z,100252
2018-09-30T09:52:20.741Z,100254
2018-09-30T09:53:26.307Z,100263
2018-09-30T09:54:30.942Z,100257
2018-09-30T09:55:36.388Z,100255
2018-09-30T09:56:41.831Z,100257
2018-09-30T09:57:47.870Z,100255
2018-09-30T09:58:53.191Z,100246
2018-09-30T09:59:58.896Z,100255
2018-09-30T10:01:04.189Z,100246
2018-09-30T10:02:09.659Z,100225
2018-09-30T10:03:14.854Z,100246
2018-09-30T10:04:20.689Z,100255
2018-09-30T10:05:25.287Z,100240
2018-09-30T10:06:31.290Z,100234
2018-09-30T10:07:36.812Z,100234
2018-09-30T10:08:41.976Z,100246
2018-09-30T10:09:47.561Z,100246
2018-09-30T10:10:52.866Z,100234
2018-09-30T10:11:58.012Z,100234
2018-09-30T10:13:03.599Z,100234
2018-09-30T10:14:08.547Z,100240
2018-09-30T10:15:13.711Z,100240
2018-09-30T10:16:19.462Z,100240
2018-09-30T10:17:24.983Z,100246
2018-09-30T10:18:30.815Z,100234
2018-09-30T10:19:36.559Z,100237
2018-09-30T10:20:41.702Z,100234
2018-09-30T10:21:47.151Z,100237
2018-09-30T10:22:52.410Z,100225
2018-09-30T10:23:57.578Z,100228
2018-09-30T10:25:03.047Z,100228
2018-09-30T10:26:07.644Z,100220
2018-09-30T10:27:12.601Z,100208
2018-09-30T10:28:17.624Z,100220
2018-09-30T10:29:22.842Z,100208
2018-09-30T10:30:28.217Z,100205
2018-09-30T10:31:33.764Z,100211
2018-09-30T10:32:39.199Z,100211
2018-09-30T10:33:44.466Z,100220
2018-09-30T10:34:49.618Z,100214
2018-09-30T10:35:54.850Z,100208
2018-09-30T10:37:00.722Z,100208
2018-09-30T10:38:05.617Z,100208
2018-09-30T10:39:11.341Z,100202
2018-09-30T10:40:18.413Z,100196
2018-09-30T10:41:23.841Z,100196
2018-09-30T10:42:29.145Z,100202
2018-09-30T10:43:34.300Z,100199
2018-09-30T10:44:39.442Z,100188
2018-09-30T10:45:45.169Z,100199
2018-09-30T10:46:50.098Z,100202
2018-09-30T10:47:55.542Z,100194
2018-09-30T10:49:00.696Z,100191
2018-09-30T10:50:05.318Z,100188
2018-09-30T10:51:10.472Z,100185
2018-09-30T10:52:16.156Z,100191
2018-09-30T10:53:21.329Z,100182
2018-09-30T10:54:27.162Z,100182
2018-09-30T10:55:31.751Z,100185
2018-09-30T10:56:36.905Z,100176
2018-09-30T10:57:42.311Z,100173
2018-09-30T10:58:47.463Z,100170
2018-09-30T10:59:52.891Z,100173
2018-09-30T11:00:58.677Z,100179
2018-09-30T11:02:03.996Z,100164
2018-09-30T11:03:09.276Z,100173
2018-09-30T11:04:14.558Z,100162
2018-09-30T11:05:19.713Z,100164
2018-09-30T11:06:40.115Z,100150
2018-09-30T11:07:45.287Z,100156
2018-09-30T11:08:50.721Z,100165
2018-09-30T11:09:56.293Z,100150
2018-09-30T11:11:01.856Z,100145
2018-09-30T11:12:06.728Z,100150
2018-09-30T11:13:12.228Z,100153
2018-09-30T11:14:17.177Z,100147
2018-09-30T11:15:22.158Z,100150
2018-09-30T11:16:27.952Z,100147
2018-09-30T11:17:32.566Z,100142
2018-09-30T11:18:37.867Z,100136
2018-09-30T11:19:43.016Z,100131
2018-09-30T11:20:48.246Z,100145
2018-09-30T11:21:54.457Z,100139
2018-09-30T11:22:59.323Z,100134
2018-09-30T11:24:04.501Z,100136
2018-09-30T11:25:09.700Z,100142
2018-09-30T11:26:14.851Z,100136
2018-09-30T11:27:20.335Z,100125
2018-09-30T11:28:25.882Z,100128
2018-09-30T11:29:31.036Z,100122
2018-09-30T11:30:36.643Z,100116
2018-09-30T11:31:41.964Z,100113
2018-09-30T11:32:47.203Z,100113
2018-09-30T11:33:52.978Z,100102
2018-09-30T11:34:58.243Z,100107
2018-09-30T11:36:03.411Z,100102
2018-09-30T11:37:09.243Z,100104
2018-09-30T11:38:14.401Z,100099
2018-09-30T11:39:18.990Z,100099
2018-09-30T11:40:24.439Z,100099
2018-09-30T11:41:29.887Z,100093
2018-09-30T11:42:35.617Z,100087
2018-09-30T11:43:40.813Z,100102
2018-09-30T11:44:45.475Z,100102
2018-09-30T11:45:51.662Z,100096
2018-09-30T11:46:56.301Z,100099
2018-09-30T11:48:01.157Z,100084
2018-09-30T11:49:06.093Z,100087
2018-09-30T11:50:11.337Z,100087
2018-09-30T11:51:16.539Z,100090
2018-09-30T11:52:21.799Z,100081
2018-09-30T11:53:27.243Z,100087
2018-09-30T11:54:32.746Z,100081
2018-09-30T11:55:37.947Z,100078
2018-09-30T11:56:43.084Z,100084
2018-09-30T11:57:48.953Z,100065
2018-09-30T11:58:53.830Z,100070
2018-09-30T11:59:58.429Z,100078
2018-09-30T12:01:04.503Z,100081
2018-09-30T12:02:09.855Z,100062
2018-09-30T12:03:15.125Z,100075
2018-09-30T12:04:20.419Z,100065
2018-09-30T12:05:25.543Z,100075
2018-09-30T12:06:30.852Z,100056
2018-09-30T12:07:35.789Z,100062
2018-09-30T12:08:40.690Z,100059
2018-09-30T12:09:46.523Z,100059
2018-09-30T12:10:52.024Z,100044
2018-09-30T12:11:57.250Z,100041
2018-09-30T12:13:02.327Z,100053
2018-09-30T12:14:07.195Z,100053
2018-09-30T12:15:12.351Z,100047
2018-09-30T12:16:17.463Z,100038
2018-09-30T12:17:22.734Z,100041
2018-09-30T12:18:27.730Z,100038
2018-09-30T12:19:32.871Z,100033
2018-09-30T12:20:38.310Z,100030
2018-09-30T12:21:43.482Z,100036
2018-09-30T12:22:48.922Z,100027
2018-09-30T12:23:54.043Z,100033
2018-09-30T12:24:59.879Z,100021
2018-09-30T12:26:05.315Z,100030
2018-09-30T12:27:09.911Z,100030
2018-09-30T12:28:15.745Z,100021
2018-09-30T12:29:20.615Z,100021
2018-09-30T12:30:40.779Z,100024
2018-09-30T12:31:46.211Z,100024
2018-09-30T12:32:51.649Z,100024
2018-09-30T12:33:57.328Z,100021
2018-09-30T12:35:02.199Z,100018
2018-09-30T12:36:06.813Z,100015
2018-09-30T12:37:12.582Z,100018
2018-09-30T12:38:18.016Z,100009
2018-09-30T12:39:23.640Z,100009
2018-09-30T12:40:43.704Z,100001
2018-09-30T12:41:48.572Z,100007
2018-09-30T12:42:54.100Z,99998
2018-09-30T12:43:59.252Z,100004
2018-09-30T12:45:03.834Z,100009
2018-09-30T12:46:09.270Z,100012
2018-09-30T12:47:14.749Z,100012
2018-09-30T12:48:20.000Z,100009
2018-09-30T12:49:25.582Z,100001
2018-09-30T12:50:29.594Z,100007
2018-09-30T12:51:34.881Z,100004
2018-09-30T12:52:40.115Z,100007
2018-09-30T12:53:45.009Z,99995
2018-09-30T12:54:50.691Z,99998
2018-09-30T12:55:55.869Z,100001
2018-09-30T12:57:01.363Z,99995
2018-09-30T12:58:07.146Z,99998
2018-09-30T12:59:12.740Z,99995
2018-09-30T13:00:18.385Z,99995
2018-09-30T13:01:24.211Z,100004
2018-09-30T13:02:29.665Z,99983
2018-09-30T13:03:35.208Z,99986
2018-09-30T13:04:40.415Z,99992
2018-09-30T13:05:45.431Z,99986
2018-09-30T13:06:51.707Z,99983
2018-09-30T13:07:57.172Z,99977
2018-09-30T13:09:02.050Z,99983
2018-09-30T13:10:06.318Z,99977
2018-09-30T13:11:11.478Z,99977
2018-09-30T13:12:16.914Z,99977
2018-09-30T13:13:22.439Z,99972
2018-09-30T13:14:27.094Z,99972
2018-09-30T13:15:33.026Z,99967
2018-09-30T13:16:38.471Z,99964
2018-09-30T13:17:43.928Z,99969
2018-09-30T13:18:48.839Z,99967
2018-09-30T13:19:53.717Z,99972
2018-09-30T13:20:59.326Z,99967
2018-09-30T13:22:05.049Z,99964
2018-09-30T13:23:09.956Z,99964
2018-09-30T13:24:15.435Z,99967
2018-09-30T13:25:20.830Z,99958
2018-09-30T13:26:25.698Z,99949
2018-09-30T13:27:31.483Z,99952
2018-09-30T13:28:36.646Z,99958
2018-09-30T13:29:42.294Z,99952
2018-09-30T13:30:48.103Z,99952
2018-09-30T13:31:53.543Z,99938
2018-09-30T13:32:58.681Z,99952
2018-09-30T13:34:04.991Z,99943
2018-09-30T13:35:09.953Z,99958
2018-09-30T13:36:14.255Z,99949
2018-09-30T13:37:20.140Z,99949
2018-09-30T13:38:25.650Z,99946